createdAt,value
2018-09-23T00:02:21.156Z,10.30
2018-09-23T00:04:49.232Z,10.30
2018-09-23T00:07:17.291Z,10.30
2018-09-23T00:09:45.319Z,10.30
2018-09-23T00:12:13.550Z,10.30
2018-09-23T00:14:41.623Z,10.30
2018-09-23T00:17:09.673Z,10.30
2018-09-23T00:19:37.759Z,10.30
2018-09-23T00:22:06.069Z,10.30
2018-09-23T00:24:34.088Z,10.30
2018-09-23T00:27:02.124Z,10.20
2018-09-23T00:29:35.700Z,10.20
2018-09-23T00:32:03.787Z,10.20
2018-09-23T00:34:31.850Z,10.20
2018-09-23T00:36:59.906Z,10.20
2018-09-23T00:39:27.957Z,10.20
2018-09-23T00:41:56.008Z,10.20
2018-09-23T00:44:24.076Z,10.10
2018-09-23T00:46:52.123Z,10.10
2018-09-23T00:49:20.156Z,10.10
2018-09-23T00:51:48.184Z,10.10
2018-09-23T00:54:16.228Z,10.00
2018-09-23T00:56:44.276Z,10.10
2018-09-23T00:59:12.393Z,10.10
2018-09-23T01:01:40.428Z,9.90
2018-09-23T01:04:08.469Z,9.90
2018-09-23T01:06:36.505Z,10.00
2018-09-23T01:09:06.693Z,9.90
2018-09-23T01:11:34.724Z,9.90
2018-09-23T01:14:02.764Z,9.80
2018-09-23T01:16:30.808Z,9.90
2018-09-23T01:18:58.893Z,9.90
2018-09-23T01:21:26.933Z,9.90
2018-09-23T01:23:55.039Z,9.80
2018-09-23T01:26:23.345Z,9.90
2018-09-23T01:28:51.390Z,9.90
2018-09-23T01:31:19.543Z,9.90
2018-09-23T01:33:47.585Z,10.00
2018-09-23T01:36:15.604Z,10.00
2018-09-23T01:38:43.695Z,10.00
2018-09-23T01:41:11.744Z,10.00
2018-09-23T01:43:39.812Z,10.00
2018-09-23T01:46:07.844Z,10.00
2018-09-23T01:48:35.884Z,10.00
2018-09-23T01:51:03.909Z,10.00
2018-09-23T01:53:31.940Z,10.00
2018-09-23T01:56:00.013Z,10.00
2018-09-23T01:58:28.041Z,10.10
2018-09-23T02:00:56.060Z,10.10
2018-09-23T02:03:24.084Z,10.10
2018-09-23T02:05:52.126Z,10.10
2018-09-23T02:08:20.149Z,10.10
2018-09-23T02:10:48.188Z,10.10
2018-09-23T02:13:16.275Z,10.20
2018-09-23T02:15:44.236Z,10.20
2018-09-23T02:18:12.285Z,10.20
2018-09-23T02:20:40.338Z,10.20
2018-09-23T02:23:08.377Z,10.10
2018-09-23T02:25:36.444Z,10.20
2018-09-23T02:28:04.480Z,10.20
2018-09-23T02:30:32.528Z,10.20
2018-09-23T02:33:00.565Z,10.20
2018-09-23T02:35:28.621Z,10.20
2018-09-23T02:37:56.660Z,10.20
2018-09-23T02:40:24.729Z,10.20
2018-09-23T02:42:52.791Z,10.20
2018-09-23T02:45:20.809Z,10.20
2018-09-23T02:47:48.861Z,10.20
2018-09-23T02:50:16.919Z,10.20
2018-09-23T02:52:44.991Z,10.20
2018-09-23T02:55:13.036Z,10.20
2018-09-23T02:57:41.077Z,10.10
2018-09-23T03:00:09.123Z,10.20
2018-09-23T03:02:37.167Z,10.20
2018-09-23T03:05:05.200Z,10.20
2018-09-23T03:07:33.232Z,10.20
2018-09-23T03:10:01.268Z,10.20
2018-09-23T03:12:29.320Z,10.20
2018-09-23T03:14:57.364Z,10.20
2018-09-23T03:17:25.404Z,10.20
2018-09-23T03:19:53.448Z,10.20
2018-09-23T03:22:21.481Z,10.10
2018-09-23T03:24:49.549Z,10.20
2018-09-23T03:27:17.584Z,10.20
2018-09-23T03:29:45.656Z,10.20
2018-09-23T03:32:13.702Z,10.20
2018-09-23T03:34:41.733Z,10.10
2018-09-23T03:37:09.796Z,10.20
2018-09-23T03:39:37.860Z,10.10
2018-09-23T03:42:05.892Z,10.10
2018-09-23T03:44:33.921Z,10.10
2018-09-23T03:47:01.977Z,10.10
2018-09-23T03:49:30.029Z,10.10
2018-09-23T03:51:58.068Z,10.10
2018-09-23T03:54:26.108Z,10.10
2018-09-23T03:56:54.142Z,10.10
2018-09-23T03:59:22.203Z,10.10
2018-09-23T04:01:50.264Z,10.10
2018-09-23T04:04:18.299Z,10.10
2018-09-23T04:06:46.353Z,10.10
2018-09-23T04:09:14.389Z,10.10
2018-09-23T04:11:42.424Z,10.10
2018-09-23T04:14:10.461Z,10.10
2018-09-23T04:16:38.529Z,10.10
2018-09-23T04:19:06.588Z,10.10
2018-09-23T04:21:34.612Z,10.10
2018-09-23T04:24:02.648Z,10.10
2018-09-23T04:26:30.694Z,10.20
2018-09-23T04:28:58.721Z,10.20
2018-09-23T04:31:26.793Z,10.20
2018-09-23T04:33:54.831Z,10.20
2018-09-23T04:36:22.864Z,10.20
2018-09-23T04:38:50.905Z,10.20
2018-09-23T04:41:18.987Z,10.20
2018-09-23T04:43:47.031Z,10.20
2018-09-23T04:46:15.083Z,10.20
2018-09-23T04:48:43.113Z,10.10
2018-09-23T04:51:11.165Z,10.10
2018-09-23T04:53:39.203Z,10.20
2018-09-23T04:56:07.286Z,10.10
2018-09-23T04:58:35.325Z,10.10
2018-09-23T05:01:03.369Z,10.20
2018-09-23T05:03:31.396Z,10.20
2018-09-23T05:05:59.450Z,10.10
2018-09-23T05:08:27.475Z,10.20
2018-09-23T05:10:55.534Z,10.20
2018-09-23T05:13:23.609Z,10.20
2018-09-23T05:15:51.721Z,10.20
2018-09-23T05:18:19.754Z,10.20
2018-09-23T05:20:47.797Z,10.20
2018-09-23T05:23:15.821Z,10.30
2018-09-23T05:25:43.929Z,10.30
2018-09-23T05:28:11.953Z,10.30
2018-09-23T05:30:39.993Z,10.30
2018-09-23T05:33:08.037Z,10.30
2018-09-23T05:35:36.059Z,10.30
2018-09-23T05:38:04.113Z,10.40
2018-09-23T05:40:32.161Z,10.40
2018-09-23T05:43:00.218Z,10.40
2018-09-23T05:45:28.521Z,10.50
2018-09-23T05:47:56.588Z,10.50
2018-09-23T05:50:24.648Z,10.40
2018-09-23T05:52:52.697Z,10.50
2018-09-23T05:55:20.764Z,10.40
2018-09-23T05:57:48.785Z,10.40
2018-09-23T06:00:17.259Z,10.40
2018-09-23T06:02:45.309Z,10.40
2018-09-23T06:05:13.312Z,10.40
2018-09-23T06:07:41.347Z,10.40
2018-09-23T06:10:09.441Z,10.40
2018-09-23T06:12:37.460Z,10.40
2018-09-23T06:15:05.500Z,10.40
2018-09-23T06:17:33.518Z,10.50
2018-09-23T06:20:01.551Z,10.50
2018-09-23T06:22:29.585Z,10.60
2018-09-23T06:24:57.605Z,10.70
2018-09-23T06:27:25.661Z,10.70
2018-09-23T06:29:53.695Z,10.70
2018-09-23T06:32:21.712Z,10.80
2018-09-23T06:34:49.769Z,10.80
2018-09-23T06:37:17.804Z,10.80
2018-09-23T06:39:45.844Z,10.80
2018-09-23T06:42:13.874Z,10.90
2018-09-23T06:44:41.902Z,10.90
2018-09-23T06:47:09.944Z,10.90
2018-09-23T06:49:37.977Z,11.00
2018-09-23T06:52:06.399Z,11.10
2018-09-23T06:54:34.438Z,11.00
2018-09-23T06:57:02.495Z,11.10
2018-09-23T06:59:30.501Z,11.20
2018-09-23T07:01:58.529Z,11.10
2018-09-23T07:04:26.666Z,11.20
2018-09-23T07:06:54.621Z,11.30
2018-09-23T07:09:22.650Z,11.50
2018-09-23T07:11:50.668Z,11.50
2018-09-23T07:14:18.738Z,11.50
2018-09-23T07:16:46.756Z,11.60
2018-09-23T07:19:14.776Z,11.50
2018-09-23T07:21:42.801Z,11.50
2018-09-23T07:24:10.891Z,11.50
2018-09-23T07:26:38.880Z,11.40
2018-09-23T07:29:07.785Z,11.50
2018-09-23T07:31:35.844Z,11.50
2018-09-23T07:34:03.896Z,11.50
2018-09-23T07:36:31.956Z,11.60
2018-09-23T07:39:00.021Z,11.80
2018-09-23T07:41:28.057Z,11.90
2018-09-23T07:43:56.121Z,12.10
2018-09-23T07:46:24.176Z,12.20
2018-09-23T07:48:52.233Z,12.30
2018-09-23T07:51:20.305Z,12.30
2018-09-23T07:53:48.335Z,12.20
2018-09-23T07:56:16.464Z,12.30
2018-09-23T07:58:44.517Z,12.30
2018-09-23T08:01:12.575Z,12.40
2018-09-23T08:03:40.634Z,12.40
2018-09-23T08:06:08.681Z,12.50
2018-09-23T08:08:36.767Z,12.60
2018-09-23T08:11:04.801Z,12.60
2018-09-23T08:13:33.060Z,12.60
2018-09-23T08:16:00.914Z,12.70
2018-09-23T08:18:28.984Z,12.90
2018-09-23T08:20:57.070Z,13.00
2018-09-23T08:23:25.143Z,13.10
2018-09-23T08:25:53.180Z,13.10
2018-09-23T08:28:21.239Z,13.10
2018-09-23T08:30:49.278Z,13.10
2018-09-23T08:33:17.342Z,13.00
2018-09-23T08:35:45.376Z,13.00
2018-09-23T08:38:13.409Z,13.20
2018-09-23T08:40:41.473Z,13.30
2018-09-23T08:43:09.597Z,13.30
2018-09-23T08:45:37.577Z,13.50
2018-09-23T08:48:05.705Z,13.50
2018-09-23T08:50:33.632Z,13.40
2018-09-23T08:53:01.667Z,13.40
2018-09-23T08:55:29.704Z,13.60
2018-09-23T08:57:57.728Z,13.70
2018-09-23T09:00:25.788Z,13.90
2018-09-23T09:02:54.077Z,14.20
2018-09-23T09:05:22.136Z,14.30
2018-09-23T09:07:50.170Z,14.20
2018-09-23T09:10:18.193Z,14.10
2018-09-23T09:12:46.307Z,14.10
2018-09-23T09:15:14.328Z,14.10
2018-09-23T09:17:42.344Z,14.40
2018-09-23T09:20:10.405Z,14.60
2018-09-23T09:22:38.442Z,14.60
2018-09-23T09:25:06.505Z,14.60
2018-09-23T09:27:34.521Z,15.00
2018-09-23T09:30:02.573Z,15.20
2018-09-23T09:32:30.624Z,15.50
2018-09-23T09:34:58.653Z,15.60
2018-09-23T09:37:26.705Z,15.60
2018-09-23T09:39:54.761Z,15.50
2018-09-23T09:42:22.821Z,15.70
2018-09-23T09:44:50.859Z,15.80
2018-09-23T09:47:18.914Z,15.80
2018-09-23T09:49:46.958Z,15.80
2018-09-23T09:52:14.997Z,15.60
2018-09-23T09:54:43.124Z,15.80
2018-09-23T09:57:11.164Z,16.00
2018-09-23T09:59:39.216Z,16.00
2018-09-23T10:02:07.246Z,15.90
2018-09-23T10:04:35.289Z,15.60
2018-09-23T10:07:03.340Z,15.40
2018-09-23T10:09:31.395Z,15.10
2018-09-23T10:11:59.461Z,15.00
2018-09-23T10:14:27.525Z,15.20
2018-09-23T10:16:55.553Z,15.30
2018-09-23T10:19:23.609Z,15.10
2018-09-23T10:21:51.657Z,15.20
2018-09-23T10:24:19.696Z,15.50
2018-09-23T10:26:47.756Z,15.80
2018-09-23T10:29:15.796Z,16.00
2018-09-23T10:31:43.850Z,16.10
2018-09-23T10:34:11.897Z,15.90
2018-09-23T10:36:39.946Z,15.50
2018-09-23T10:39:09.162Z,15.20
2018-09-23T10:41:37.222Z,15.10
2018-09-23T10:44:05.704Z,15.20
2018-09-23T10:46:34.068Z,15.40
2018-09-23T10:49:02.242Z,15.50
2018-09-23T10:51:30.345Z,15.30
2018-09-23T10:53:58.383Z,15.40
2018-09-23T10:56:26.433Z,15.50
2018-09-23T10:58:54.469Z,15.50
2018-09-23T11:01:22.571Z,15.30
2018-09-23T11:03:50.659Z,15.20
2018-09-23T11:06:18.685Z,15.10
2018-09-23T11:08:46.822Z,15.00
2018-09-23T11:11:14.864Z,14.90
2018-09-23T11:13:42.910Z,15.00
2018-09-23T11:16:10.924Z,15.10
2018-09-23T11:18:38.989Z,15.10
2018-09-23T11:21:07.040Z,15.00
2018-09-23T11:23:35.107Z,15.00
2018-09-23T11:26:03.294Z,14.90
2018-09-23T11:28:31.356Z,14.80
2018-09-23T11:30:59.408Z,14.80
2018-09-23T11:33:27.436Z,14.90
2018-09-23T11:35:55.457Z,15.00
2018-09-23T11:38:23.529Z,15.10
2018-09-23T11:40:51.555Z,15.20
2018-09-23T11:43:19.604Z,15.50
2018-09-23T11:45:47.636Z,15.80
2018-09-23T11:48:15.665Z,15.90
2018-09-23T11:50:43.708Z,16.00
2018-09-23T11:53:11.769Z,16.00
2018-09-23T11:55:39.785Z,15.80
2018-09-23T11:58:07.835Z,15.60
2018-09-23T12:00:35.864Z,15.40
2018-09-23T12:03:03.892Z,15.40
2018-09-23T12:05:31.925Z,15.30
2018-09-23T12:07:59.964Z,15.30
2018-09-23T12:10:28.023Z,15.40
2018-09-23T12:12:56.044Z,15.50
2018-09-23T12:15:24.104Z,15.50
2018-09-23T12:17:52.177Z,15.40
2018-09-23T12:20:20.356Z,15.50
2018-09-23T12:22:48.381Z,15.60
2018-09-23T12:25:16.407Z,15.90
2018-09-23T12:27:44.421Z,16.00
2018-09-23T12:30:12.456Z,15.80
2018-09-23T12:32:40.500Z,15.50
2018-09-23T12:35:08.540Z,15.20
2018-09-23T12:37:36.592Z,14.90
2018-09-23T12:40:04.954Z,14.60
2018-09-23T12:42:33.005Z,14.50
2018-09-23T12:45:01.089Z,14.30
2018-09-23T12:47:29.148Z,14.10
2018-09-23T12:49:57.188Z,13.90
2018-09-23T12:52:25.263Z,13.70
2018-09-23T12:54:53.309Z,13.50
2018-09-23T12:57:21.345Z,12.50
2018-09-23T12:59:49.680Z,11.90
2018-09-23T13:02:17.734Z,11.90
2018-09-23T13:04:45.786Z,11.90
2018-09-23T13:07:13.832Z,11.90
2018-09-23T13:09:41.881Z,11.90
2018-09-23T13:12:09.925Z,12.00
2018-09-23T13:14:37.995Z,12.00
2018-09-23T13:17:06.056Z,11.80
2018-09-23T13:19:34.206Z,11.70
2018-09-23T13:22:02.201Z,11.50
2018-09-23T13:24:30.230Z,11.40
2018-09-23T13:26:58.283Z,11.30
2018-09-23T13:29:26.328Z,11.20
2018-09-23T13:31:54.361Z,11.20
2018-09-23T13:34:22.417Z,11.30
2018-09-23T13:36:50.508Z,11.30
2018-09-23T13:39:18.573Z,11.60
2018-09-23T13:41:46.620Z,11.60
2018-09-23T13:44:14.663Z,11.50
2018-09-23T13:46:42.734Z,11.40
2018-09-23T13:49:10.798Z,11.40
2018-09-23T13:51:38.846Z,11.30
2018-09-23T13:54:06.908Z,11.40
2018-09-23T13:56:34.960Z,11.50
2018-09-23T13:59:03.020Z,11.40
2018-09-23T14:01:31.108Z,11.40
2018-09-23T14:03:59.159Z,11.40
2018-09-23T14:06:27.184Z,11.40
2018-09-23T14:08:55.225Z,11.50
2018-09-23T14:11:23.304Z,11.60
2018-09-23T14:13:51.365Z,11.60
2018-09-23T14:16:19.436Z,11.60
2018-09-23T14:18:47.489Z,11.60
2018-09-23T14:21:16.248Z,11.80
2018-09-23T14:23:44.284Z,11.90
2018-09-23T14:26:12.383Z,12.00
2018-09-23T14:28:40.429Z,12.20
2018-09-23T14:31:08.469Z,12.20
2018-09-23T14:33:36.554Z,12.20
2018-09-23T14:36:04.589Z,12.20
2018-09-23T14:38:32.661Z,12.20
2018-09-23T14:41:00.708Z,12.30
2018-09-23T14:43:28.812Z,12.20
2018-09-23T14:45:57.057Z,12.20
2018-09-23T14:48:25.322Z,12.20
2018-09-23T14:50:53.741Z,12.00
2018-09-23T14:53:22.169Z,11.90
2018-09-23T14:55:50.220Z,11.90
2018-09-23T14:58:18.283Z,11.90
2018-09-23T15:00:46.321Z,11.90
2018-09-23T15:03:14.610Z,11.90
2018-09-23T15:05:42.662Z,11.90
2018-09-23T15:08:10.712Z,11.80
2018-09-23T15:10:38.765Z,11.60
2018-09-23T15:13:06.829Z,11.70
2018-09-23T15:15:34.913Z,11.70
2018-09-23T15:18:03.075Z,11.70
2018-09-23T15:20:31.141Z,11.70
2018-09-23T15:22:59.186Z,11.70
2018-09-23T15:25:27.245Z,11.70
2018-09-23T15:27:55.288Z,11.80
2018-09-23T15:30:23.532Z,11.80
2018-09-23T15:32:51.713Z,11.90
2018-09-23T15:35:19.729Z,12.00
2018-09-23T15:37:47.817Z,12.20
2018-09-23T15:40:15.942Z,12.30
2018-09-23T15:42:43.990Z,12.30
2018-09-23T15:45:12.044Z,12.20
2018-09-23T15:47:40.068Z,12.10
2018-09-23T15:50:08.115Z,12.10
2018-09-23T15:52:36.177Z,12.00
2018-09-23T15:55:04.250Z,12.00
2018-09-23T15:57:32.292Z,12.00
2018-09-23T16:00:00.345Z,11.90
2018-09-23T16:02:28.411Z,11.90
2018-09-23T16:04:56.448Z,11.90
2018-09-23T16:07:24.466Z,11.90
2018-09-23T16:09:52.497Z,11.80
2018-09-23T16:12:20.563Z,11.70
2018-09-23T16:14:48.641Z,11.60
2018-09-23T16:17:16.687Z,11.60
2018-09-23T16:19:44.708Z,11.60
2018-09-23T16:22:12.753Z,11.60
2018-09-23T16:24:40.842Z,11.50
2018-09-23T16:27:08.870Z,11.50
2018-09-23T16:29:36.892Z,11.60
2018-09-23T16:32:05.070Z,11.50
2018-09-23T16:34:32.997Z,11.50
2018-09-23T16:37:01.039Z,11.60
2018-09-23T16:39:29.066Z,11.60
2018-09-23T16:41:57.144Z,11.60
2018-09-23T16:44:25.181Z,11.60
2018-09-23T16:46:53.239Z,11.50
2018-09-23T16:49:21.268Z,11.50
2018-09-23T16:51:49.300Z,11.50
2018-09-23T16:54:17.405Z,11.50
2018-09-23T16:56:45.437Z,11.40
2018-09-23T16:59:13.476Z,11.40
2018-09-23T17:01:41.516Z,11.40
2018-09-23T17:04:09.569Z,11.30
2018-09-23T17:06:37.622Z,11.30
2018-09-23T17:09:07.557Z,11.30
2018-09-23T17:11:35.629Z,11.30
2018-09-23T17:14:03.682Z,11.30
2018-09-23T17:16:31.732Z,11.30
2018-09-23T17:18:59.785Z,11.30
2018-09-23T17:21:27.816Z,11.30
2018-09-23T17:23:56.057Z,11.30
2018-09-23T17:26:24.533Z,11.20
2018-09-23T17:28:53.095Z,11.10
2018-09-23T17:31:21.128Z,11.10
2018-09-23T17:33:49.203Z,11.10
2018-09-23T17:36:17.229Z,11.10
2018-09-23T17:38:45.324Z,11.10
2018-09-23T17:41:13.352Z,11.10
2018-09-23T17:43:41.377Z,11.10
2018-09-23T17:46:09.408Z,11.00
2018-09-23T17:48:37.457Z,11.00
2018-09-23T17:51:05.665Z,11.00
2018-09-23T17:53:33.717Z,11.00
2018-09-23T17:56:01.729Z,11.00
2018-09-23T17:58:29.752Z,10.90
2018-09-23T18:00:57.816Z,10.90
2018-09-23T18:03:25.839Z,10.90
2018-09-23T18:05:53.853Z,10.90
2018-09-23T18:08:21.890Z,10.90
2018-09-23T18:10:49.896Z,10.90
2018-09-23T18:13:18.095Z,10.90
2018-09-23T18:15:46.101Z,10.90
2018-09-23T18:18:14.153Z,10.90
2018-09-23T18:20:42.213Z,10.90
2018-09-23T18:23:10.243Z,10.90
2018-09-23T18:25:38.266Z,10.90
2018-09-23T18:28:06.281Z,10.90
2018-09-23T18:30:34.324Z,10.90
2018-09-23T18:33:02.369Z,10.90
2018-09-23T18:35:30.483Z,10.90
2018-09-23T18:37:58.515Z,10.80
2018-09-23T18:40:26.548Z,10.80
2018-09-23T18:42:54.613Z,10.80
2018-09-23T18:45:22.666Z,10.90
2018-09-23T18:47:50.704Z,10.80
2018-09-23T18:50:18.742Z,10.80
2018-09-23T18:52:46.772Z,10.80
2018-09-23T18:55:20.345Z,10.80
2018-09-23T18:57:48.348Z,10.80
2018-09-23T19:00:16.381Z,10.80
2018-09-23T19:02:44.429Z,10.70
2018-09-23T19:05:12.466Z,10.70
2018-09-23T19:07:40.571Z,10.70
2018-09-23T19:10:08.629Z,10.70
2018-09-23T19:12:36.676Z,10.70
2018-09-23T19:15:04.753Z,10.70
2018-09-23T19:17:32.814Z,10.70
2018-09-23T19:20:06.297Z,10.70
2018-09-23T19:22:39.823Z,10.70
2018-09-23T19:25:07.865Z,10.70
2018-09-23T19:27:35.905Z,10.60
2018-09-23T19:30:03.964Z,10.60
2018-09-23T19:32:32.073Z,10.60
2018-09-23T19:35:00.073Z,10.60
2018-09-23T19:37:28.120Z,10.60
2018-09-23T19:39:56.170Z,10.60
2018-09-23T19:42:24.229Z,10.50
2018-09-23T19:44:52.266Z,10.50
2018-09-23T19:47:20.317Z,10.50
2018-09-23T19:49:48.395Z,10.50
2018-09-23T19:52:16.443Z,10.50
2018-09-23T19:54:44.493Z,10.50
2018-09-23T19:57:12.536Z,10.60
2018-09-23T19:59:40.608Z,10.50
2018-09-23T20:02:08.694Z,10.60
2018-09-23T20:04:36.749Z,10.50
2018-09-23T20:07:04.879Z,10.50
2018-09-23T20:09:32.886Z,10.40
2018-09-23T20:12:00.956Z,10.40
2018-09-23T20:14:28.986Z,10.40
2018-09-23T20:16:57.040Z,10.30
2018-09-23T20:19:25.080Z,10.30
2018-09-23T20:21:53.135Z,10.30
2018-09-23T20:24:21.175Z,10.30
2018-09-23T20:26:50.235Z,10.20
2018-09-23T20:29:18.280Z,10.20
2018-09-23T20:31:46.308Z,10.20
2018-09-23T20:34:14.353Z,10.10
2018-09-23T20:36:42.367Z,10.10
2018-09-23T20:39:10.912Z,10.10
2018-09-23T20:41:38.924Z,10.00
2018-09-23T20:44:07.381Z,10.00
2018-09-23T20:46:35.413Z,10.00
2018-09-23T20:49:03.440Z,10.00
2018-09-23T20:51:31.488Z,10.00
2018-09-23T20:53:59.548Z,9.90
2018-09-23T20:56:27.579Z,9.90
2018-09-23T20:58:55.653Z,9.90
2018-09-23T21:01:23.698Z,10.00
2018-09-23T21:03:51.741Z,9.90
2018-09-23T21:06:19.868Z,9.90
2018-09-23T21:08:47.897Z,9.90
2018-09-23T21:11:15.940Z,9.90
2018-09-23T21:13:43.965Z,9.90
2018-09-23T21:16:12.001Z,9.90
2018-09-23T21:18:40.045Z,9.90
2018-09-23T21:21:08.082Z,9.90
2018-09-23T21:23:36.154Z,9.90
2018-09-23T21:26:04.176Z,9.90
2018-09-23T21:28:32.229Z,9.80
2018-09-23T21:31:00.288Z,9.80
2018-09-23T21:33:28.324Z,9.90
2018-09-23T21:35:56.355Z,9.90
2018-09-23T21:38:24.416Z,9.90
2018-09-23T21:40:52.433Z,9.90
2018-09-23T21:43:20.452Z,9.90
2018-09-23T21:45:48.484Z,9.90
2018-09-23T21:48:16.504Z,9.90
2018-09-23T21:50:44.524Z,9.90
2018-09-23T21:53:12.547Z,9.90
2018-09-23T21:55:40.560Z,9.90
2018-09-23T21:58:08.593Z,9.90
2018-09-23T22:00:41.753Z,9.80
2018-09-23T22:03:10.036Z,9.80
2018-09-23T22:05:38.317Z,9.70
2018-09-23T22:08:06.313Z,9.70
2018-09-23T22:10:34.316Z,9.70
2018-09-23T22:13:02.348Z,9.60
2018-09-23T22:15:30.368Z,9.60
2018-09-23T22:17:58.399Z,9.60
2018-09-23T22:20:26.946Z,9.60
2018-09-23T22:22:55.708Z,9.60
2018-09-23T22:25:24.016Z,9.60
2018-09-23T22:27:52.796Z,9.60
2018-09-23T22:30:21.194Z,9.60
2018-09-23T22:32:49.219Z,9.60
2018-09-23T22:35:17.264Z,9.60
2018-09-23T22:37:45.318Z,9.60
2018-09-23T22:40:13.336Z,9.50
2018-09-23T22:42:41.365Z,9.50
2018-09-23T22:45:09.406Z,9.50
2018-09-23T22:47:37.426Z,9.40
2018-09-23T22:50:05.764Z,9.40
2018-09-23T22:52:34.005Z,9.40
2018-09-23T22:55:02.033Z,9.40
2018-09-23T22:57:30.257Z,9.40
2018-09-23T22:59:58.279Z,9.40
2018-09-23T23:02:26.317Z,9.40
2018-09-23T23:04:54.363Z,9.40
2018-09-23T23:07:22.394Z,9.40
2018-09-23T23:09:50.435Z,9.50
2018-09-23T23:12:18.461Z,9.50
2018-09-23T23:14:46.493Z,9.50
2018-09-23T23:17:14.525Z,9.50
2018-09-23T23:19:42.585Z,9.50
2018-09-23T23:22:10.638Z,9.50
2018-09-23T23:24:38.664Z,9.50
2018-09-23T23:27:06.413Z,9.50
2018-09-23T23:29:34.453Z,9.50
2018-09-23T23:32:02.556Z,9.60
2018-09-23T23:34:30.596Z,9.60
2018-09-23T23:36:58.629Z,9.60
2018-09-23T23:39:26.661Z,9.60
2018-09-23T23:42:01.421Z,9.60
2018-09-23T23:44:29.474Z,9.60
2018-09-23T23:46:57.509Z,9.70
2018-09-23T23:49:25.849Z,9.70
2018-09-23T23:51:53.881Z,9.60
2018-09-23T23:54:21.919Z,9.60
2018-09-23T23:56:49.956Z,9.50
2018-09-23T23:59:18.001Z,9.50
